Rankin, Pennsylvania
Current Conditions -  °F | °C
As of 12:53 PM on Thursday 18 Dec 2014 (Local Time) from KAGC Reporting Station
Haze Haze  
Wind Chill: 19°   Ceiling: 1800
Heat Index: 28°   Visibility: 4mi
Dew Point: 20°   Wind: 9mph
Humidity: 72%   Direction: 260°W
Pressure: 30.15"   Gusts: NA
Location:  40.4039°N, 79.8613°W
Report Text: KAGC 181753Z 26008KT 4SM BR BKN018 OVC024 M02/M07 A3015 RMK AO2 SNE1658B10E31 SLP228 P0000 60000 T10221067 11022 21028 58010
Loading
Personal Weather Stations






























Interactive Weather Map New forecast layout! Learn more

10-Day Weather Forecast

Advertisements
Track Severe Weather on mobile